Weather reports worldwide

Advertisment
Figueras Castropol, Spain (8009): temperature & dewpoint: 17.09.2018 03:00:00 - 23.09.2018 03:00:00 (CEST)Figueras Castropol, Spain (8009): wind speed & gusts: 17.09.2018 03:00:00 - 23.09.2018 03:00:00 (CEST)Figueras Castropol, Spain (8009): wind direction: 17.09.2018 03:00:00 - 23.09.2018 03:00:00 (CEST)Figueras Castropol, Spain (8009): precipitation: 17.09.2018 03:00:00 - 23.09.2018 03:00:00 (CEST)
Date & Time tt [°C] td [°C] ff [km/h] ff [kn] fx [km/h] fx [kn] dd rr [mm]
23.09.2018 03:00:00 - - - - - - - -
23.09.2018 02:00:00 16,8 16,0 5 3 16 9 SSW -
23.09.2018 01:00:00 16,8 16,0 8 4 13 7 SSW 0,0
23.09.2018 00:00:00 16,7 15,5 4 2 8 4 S 0,0
22.09.2018 23:00:00 17,2 15,9 4 2 11 6 ESE 0,0
22.09.2018 22:00:00 17,9 16,2 5 3 10 5 SSW 0,0
22.09.2018 21:00:00 18,5 16,1 4 2 10 5 E 0,0
22.09.2018 20:00:00 19,8 15,9 5 3 13 7 ENE -
22.09.2018 19:00:00 21,4 16,4 5 3 15 8 ENE 0,0
22.09.2018 18:00:00 22,3 16,8 5 3 14 8 NE 0,0
22.09.2018 17:00:00 22,7 17,0 5 3 12 7 NNW 0,0
22.09.2018 16:00:00 23,1 16,9 5 3 16 8 N 0,0
22.09.2018 15:00:00 22,5 16,0 7 4 14 7 N 0,0
22.09.2018 14:00:00 21,7 16,4 6 3 14 8 N -
22.09.2018 13:00:00 21,8 15,4 8 4 14 7 NNE 0,0
22.09.2018 12:00:00 22,6 16,1 4 2 21 11 NNW 0,0
22.09.2018 11:00:00 20,7 15,7 10 5 22 12 SSW 0,0
22.09.2018 10:00:00 18,2 15,1 11 6 22 12 S 0,0
22.09.2018 09:00:00 16,5 14,9 9 5 22 12 SSW 0,0
22.09.2018 08:00:00 16,0 14,7 13 7 25 13 SSW -
22.09.2018 07:00:00 15,4 14,2 11 6 20 11 SSW 0,0
22.09.2018 06:00:00 15,5 14,7 10 5 21 12 SSW 0,0
22.09.2018 05:00:00 15,3 14,7 10 5 16 9 S 0,0
22.09.2018 04:00:00 15,0 14,3 8 4 18 10 S 0,0
22.09.2018 03:00:00 15,2 14,5 8 4 15 8 SSW 0,0
22.09.2018 02:00:00 15,2 14,5 5 3 11 6 SSW -
22.09.2018 01:00:00 15,2 14,4 0 0 8 4 SSE 0,0
22.09.2018 00:00:00 15,6 14,8 3 2 10 6 SSW 0,0
21.09.2018 23:00:00 15,9 14,6 4 2 9 5 SSW 0,0
21.09.2018 22:00:00 16,3 15,0 0 0 8 4 ENE 0,0
21.09.2018 21:00:00 16,3 15,0 4 2 10 5 ENE 0,0
21.09.2018 20:00:00 16,3 15,0 4 2 14 7 E -
21.09.2018 19:00:00 16,0 15,2 8 4 16 8 ENE 0,1
21.09.2018 18:00:00 16,3 15,5 7 4 16 8 E 0,5
21.09.2018 17:00:00 16,7 15,7 5 3 11 6 NNE 0,0
21.09.2018 16:00:00 17,0 16,2 3 2 7 4 NNW 0,0
21.09.2018 15:00:00 17,1 16,3 1 0 10 5 NNW 0,4
21.09.2018 14:00:00 17,0 15,7 4 2 9 5 N -
21.09.2018 13:00:00 17,5 16,0 3 1 11 6 NNE 0,0
21.09.2018 12:00:00 17,7 16,0 5 3 14 7 N 0,0
21.09.2018 11:00:00 17,8 16,1 1 1 13 7 NW 0,0
21.09.2018 10:00:00 17,9 15,7 1 1 18 10 NNW 0,0
21.09.2018 09:00:00 19,9 13,4 8 5 32 17 WSW 0,0
21.09.2018 08:00:00 19,7 13,2 14 8 34 18 SSW -
21.09.2018 07:00:00 19,7 13,2 13 7 36 19 SW 0,0
21.09.2018 06:00:00 19,5 13,0 16 8 38 20 SSW 0,0
21.09.2018 05:00:00 19,6 13,1 17 9 48 26 SSW 0,0
21.09.2018 04:00:00 19,4 13,4 16 8 37 20 SSW 0,0
21.09.2018 03:00:00 19,8 13,5 16 9 42 23 SSW 0,0
21.09.2018 02:00:00 19,8 13,9 17 9 38 21 SSW -
21.09.2018 01:00:00 19,6 14,2 15 8 40 22 SW 0,0
21.09.2018 00:00:00 20,0 13,5 19 10 39 21 SW 0,0
20.09.2018 23:00:00 20,4 11,9 8 5 30 16 WSW 0,0
20.09.2018 22:00:00 17,3 14,2 4 2 18 10 E 0,0
20.09.2018 21:00:00 18,0 14,1 7 4 16 9 S 0,0
20.09.2018 20:00:00 18,9 14,6 5 3 19 11 S -
20.09.2018 19:00:00 19,3 14,3 8 4 16 8 ESE 0,0
20.09.2018 18:00:00 20,3 15,7 5 3 15 8 NE 0,0
20.09.2018 17:00:00 19,3 15,8 6 3 16 8 NE 0,0
20.09.2018 16:00:00 19,4 15,1 5 3 13 7 NNW 0,0
20.09.2018 15:00:00 20,4 15,2 8 4 19 10 NE 0,0
20.09.2018 14:00:00 20,5 15,1 8 4 14 8 N -
20.09.2018 13:00:00 20,9 14,3 7 4 12 7 NE 0,0
20.09.2018 12:00:00 21,5 14,9 2 1 14 7 NW 0,0
20.09.2018 11:00:00 18,6 13,7 6 4 24 13 S 0,0
20.09.2018 10:00:00 15,9 12,6 13 7 24 13 SSW 0,0
20.09.2018 09:00:00 14,0 12,0 12 7 24 13 S 0,0
20.09.2018 08:00:00 13,3 11,7 10 6 24 13 S -
20.09.2018 07:00:00 13,8 12,3 11 6 25 13 SSW 0,0
20.09.2018 06:00:00 13,8 12,3 11 6 24 13 SSW 0,0
20.09.2018 05:00:00 13,7 12,2 11 6 22 12 SSW 0,0
20.09.2018 04:00:00 13,9 12,6 10 6 23 12 SSW 0,0
20.09.2018 03:00:00 14,2 12,7 8 4 18 10 SSW 0,0
20.09.2018 02:00:00 14,5 13,1 8 4 13 7 SSW -
20.09.2018 01:00:00 15,1 13,5 6 4 13 7 SSW 0,0
20.09.2018 00:00:00 15,3 13,4 4 2 10 5 S 0,0
19.09.2018 23:00:00 16,2 13,9 4 2 8 5 SSW 0,0
19.09.2018 22:00:00 17,0 13,8 0 0 7 4 N 0,0
19.09.2018 21:00:00 18,6 13,5 4 2 12 6 NE 0,0
19.09.2018 20:00:00 20,2 12,4 6 3 16 9 NE -
19.09.2018 19:00:00 22,1 12,3 6 3 16 9 ENE 0,0
19.09.2018 18:00:00 23,0 12,3 7 4 18 10 NE 0,0
19.09.2018 17:00:00 23,7 12,6 8 5 18 10 NE 0,0
19.09.2018 16:00:00 25,0 13,3 8 4 17 9 NE 0,0
19.09.2018 15:00:00 25,1 13,4 5 3 18 10 N 0,0
19.09.2018 14:00:00 24,7 13,0 6 3 21 11 SW -
19.09.2018 13:00:00 23,5 13,1 9 5 21 12 SW 0,0
19.09.2018 12:00:00 22,0 13,4 9 5 23 13 SSW 0,0
19.09.2018 11:00:00 20,0 13,5 11 6 23 13 SW 0,0
19.09.2018 10:00:00 17,5 14,0 9 5 24 13 SSW 0,0
19.09.2018 09:00:00 15,4 13,8 10 5 20 11 SSW 0,0
19.09.2018 08:00:00 15,5 14,0 9 5 18 10 SSW -
19.09.2018 07:00:00 15,2 13,6 7 4 15 8 S 0,0
19.09.2018 06:00:00 15,3 14,0 9 5 18 10 SW 0,0
19.09.2018 05:00:00 14,8 13,6 6 3 12 6 SSW 0,0
19.09.2018 04:00:00 15,1 13,7 4 2 11 6 SW 0,0
19.09.2018 03:00:00 15,6 13,7 0 0 8 4 SSW 0,0
19.09.2018 02:00:00 16,0 13,5 2 1 8 4 S -
19.09.2018 01:00:00 17,1 13,9 3 2 9 5 SW 0,0
19.09.2018 00:00:00 17,9 13,7 3 2 10 5 S 0,0
18.09.2018 23:00:00 18,3 13,4 1 1 15 8 W 0,0
18.09.2018 22:00:00 18,1 13,6 4 2 12 6 E 0,0
18.09.2018 21:00:00 18,6 13,7 2 1 13 7 E 0,0
18.09.2018 20:00:00 19,0 13,7 7 4 14 8 E -
18.09.2018 19:00:00 19,7 13,2 6 3 16 9 NE 0,0
18.09.2018 18:00:00 21,4 14,3 6 3 19 10 ENE 0,0
18.09.2018 17:00:00 20,6 14,2 6 3 15 8 E 0,0
18.09.2018 16:00:00 21,3 14,9 6 3 14 8 N 0,0
18.09.2018 15:00:00 21,8 15,4 6 4 19 10 N 0,0
18.09.2018 14:00:00 21,7 14,8 7 4 15 8 NNW -
18.09.2018 13:00:00 21,3 14,7 9 5 14 8 N 0,0
18.09.2018 12:00:00 20,9 14,5 2 1 7 4 SW 0,0
18.09.2018 11:00:00 18,9 13,9 1 0 7 4 SSE 0,0
18.09.2018 10:00:00 17,2 13,4 4 2 9 5 S 0,0
18.09.2018 09:00:00 15,8 12,7 3 1 12 6 SE 0,0
18.09.2018 08:00:00 15,9 11,9 8 4 14 8 S -
18.09.2018 07:00:00 15,7 12,4 5 3 13 7 S 0,0
18.09.2018 06:00:00 14,8 12,4 4 2 11 6 SSW 0,0
18.09.2018 05:00:00 15,0 12,8 5 3 16 9 S 0,0
18.09.2018 04:00:00 13,8 13,2 4 2 10 6 SSW 0,0
18.09.2018 03:00:00 14,1 13,5 3 2 9 5 S 0,0
18.09.2018 02:00:00 14,6 14,1 2 1 10 5 SSW -
18.09.2018 01:00:00 15,1 14,6 5 3 15 8 WSW 0,0
18.09.2018 00:00:00 15,2 14,7 6 4 14 8 SSW 0,0
17.09.2018 23:00:00 15,5 14,9 6 3 12 6 S 0,0
17.09.2018 22:00:00 15,7 14,9 3 2 7 4 S 0,0
17.09.2018 21:00:00 16,0 14,9 2 1 11 6 SE 0,0
17.09.2018 20:00:00 16,1 15,0 9 5 15 8 E -
17.09.2018 19:00:00 16,3 14,8 5 3 12 6 NE 0,0
17.09.2018 18:00:00 17,1 14,7 5 3 14 8 N 0,0
17.09.2018 17:00:00 18,2 14,7 8 5 19 10 N 0,0
17.09.2018 16:00:00 19,7 15,2 9 5 15 8 N 0,0
17.09.2018 15:00:00 20,9 15,3 6 4 17 9 NNW 0,0
17.09.2018 14:00:00 23,4 14,7 6 3 11 6 NNE -
17.09.2018 13:00:00 22,3 14,1 8 4 16 9 N 0,0
17.09.2018 12:00:00 24,2 14,6 1 1 7 4 WNW 0,0
17.09.2018 11:00:00 21,4 14,3 3 2 17 9 S 0,0
17.09.2018 10:00:00 18,2 13,9 9 5 18 10 SSW 0,0
17.09.2018 09:00:00 16,3 13,9 9 5 16 9 S 0,0
17.09.2018 08:00:00 15,4 14,1 7 4 19 10 S -
17.09.2018 07:00:00 15,6 14,8 11 6 26 14 S 0,0
17.09.2018 06:00:00 15,5 14,7 4 2 11 6 SSW 0,0
17.09.2018 05:00:00 16,1 15,3 7 4 11 6 SE 0,0
17.09.2018 04:00:00 16,5 15,9 1 1 11 6 SE 0,0
17.09.2018 03:00:00 16,5 15,7 0 0 9 5 SSW 0,0

tt = temperature
td = dewpoint
ff = wind speed
fx = gusts
dd = wind direction
rr = precipitation

Next stations